sensor_id;sensor_type;location;lat;lon;timestamp;pressure;altitude;pressure_sealevel;temperature;humidity
34237;BME280;20501;45.956;13.632;2024-03-07T00:00:06;100613.53;;;9.16;100.00
34237;BME280;20501;45.956;13.632;2024-03-07T00:02:48;100608.41;;;9.34;100.00
34237;BME280;20501;45.956;13.632;2024-03-07T00:05:14;100607.00;;;9.18;100.00
34237;BME280;20501;45.956;13.632;2024-03-07T00:07:41;100604.47;;;9.17;100.00
34237;BME280;20501;45.956;13.632;2024-03-07T00:10:07;100608.09;;;9.27;99.08
34237;BME280;20501;45.956;13.632;2024-03-07T00:12:37;100612.16;;;9.21;100.00
34237;BME280;20501;45.956;13.632;2024-03-07T00:15:06;100612.38;;;8.97;100.00
34237;BME280;20501;45.956;13.632;2024-03-07T00:17:32;100605.22;;;9.07;100.00
34237;BME280;20501;45.956;13.632;2024-03-07T00:19:58;100608.91;;;9.06;100.00
34237;BME280;20501;45.956;13.632;2024-03-07T00:22:23;100604.38;;;9.07;100.00
34237;BME280;20501;45.956;13.632;2024-03-07T00:24:52;100604.22;;;9.08;100.00
34237;BME280;20501;45.956;13.632;2024-03-07T00:27:18;100597.81;;;9.21;100.00
34237;BME280;20501;45.956;13.632;2024-03-07T00:29:44;100599.56;;;9.10;100.00
34237;BME280;20501;45.956;13.632;2024-03-07T00:32:18;100603.06;;;9.01;100.00
34237;BME280;20501;45.956;13.632;2024-03-07T00:34:43;100604.50;;;9.26;100.00
34237;BME280;20501;45.956;13.632;2024-03-07T00:37:09;100612.78;;;9.35;99.81
34237;BME280;20501;45.956;13.632;2024-03-07T00:39:34;100608.34;;;9.24;100.00
34237;BME280;20501;45.956;13.632;2024-03-07T00:42:00;100601.78;;;9.17;99.15
34237;BME280;20501;45.956;13.632;2024-03-07T00:44:25;100605.69;;;9.12;100.00
34237;BME280;20501;45.956;13.632;2024-03-07T00:46:51;100605.31;;;9.17;100.00
34237;BME280;20501;45.956;13.632;2024-03-07T00:49:17;100611.88;;;9.24;100.00
34237;BME280;20501;45.956;13.632;2024-03-07T00:51:42;100610.03;;;9.25;100.00
34237;BME280;20501;45.956;13.632;2024-03-07T00:54:09;100607.84;;;9.19;100.00
34237;BME280;20501;45.956;13.632;2024-03-07T00:56:34;100608.19;;;9.25;100.00
34237;BME280;20501;45.956;13.632;2024-03-07T00:59:01;100618.38;;;9.22;100.00
34237;BME280;20501;45.956;13.632;2024-03-07T01:01:26;100611.56;;;9.18;99.88
34237;BME280;20501;45.956;13.632;2024-03-07T01:03:52;100619.84;;;9.26;100.00
34237;BME280;20501;45.956;13.632;2024-03-07T01:06:17;100611.88;;;9.24;100.00
34237;BME280;20501;45.956;13.632;2024-03-07T01:08:43;100616.38;;;9.35;99.65
34237;BME280;20501;45.956;13.632;2024-03-07T01:11:08;100612.16;;;9.21;100.00
34237;BME280;20501;45.956;13.632;2024-03-07T01:13:40;100609.84;;;9.17;100.00
34237;BME280;20501;45.956;13.632;2024-03-07T01:16:06;100608.38;;;9.12;100.00
34237;BME280;20501;45.956;13.632;2024-03-07T01:18:32;100599.66;;;9.20;100.00
34237;BME280;20501;45.956;13.632;2024-03-07T01:21:03;100598.09;;;9.18;100.00
34237;BME280;20501;45.956;13.632;2024-03-07T01:23:30;100595.16;;;9.09;100.00
34237;BME280;20501;45.956;13.632;2024-03-07T01:25:57;100602.03;;;9.13;100.00
34237;BME280;20501;45.956;13.632;2024-03-07T01:28:23;100593.16;;;9.23;100.00
34237;BME280;20501;45.956;13.632;2024-03-07T01:30:49;100603.34;;;9.19;100.00
34237;BME280;20501;45.956;13.632;2024-03-07T01:33:15;100607.00;;;9.18;100.00
34237;BME280;20501;45.956;13.632;2024-03-07T01:35:41;100597.81;;;9.21;99.56
34237;BME280;20501;45.956;13.632;2024-03-07T01:38:06;100604.22;;;9.08;99.50
34237;BME280;20501;45.956;13.632;2024-03-07T01:40:33;100595.50;;;9.16;99.77
34237;BME280;20501;45.956;13.632;2024-03-07T01:43:01;100587.84;;;9.33;100.00
34237;BME280;20501;45.956;13.632;2024-03-07T01:45:26;100588.06;;;9.08;100.00
34237;BME280;20501;45.956;13.632;2024-03-07T01:47:52;100587.16;;;9.19;100.00
34237;BME280;20501;45.956;13.632;2024-03-07T01:50:18;100585.66;;;9.05;100.00
34237;BME280;20501;45.956;13.632;2024-03-07T01:52:44;100589.19;;;9.06;100.00
34237;BME280;20501;45.956;13.632;2024-03-07T01:55:11;100590.13;;;9.16;100.00
34237;BME280;20501;45.956;13.632;2024-03-07T01:57:38;100582.28;;;9.34;100.00
34237;BME280;20501;45.956;13.632;2024-03-07T02:00:04;100583.03;;;9.36;100.00
34237;BME280;20501;45.956;13.632;2024-03-07T02:02:32;100583.19;;;9.23;99.73
34237;BME280;20501;45.956;13.632;2024-03-07T02:04:57;100577.19;;;9.10;100.00
34237;BME280;20501;45.956;13.632;2024-03-07T02:07:23;100578.88;;;9.11;100.00
34237;BME280;20501;45.956;13.632;2024-03-07T02:09:49;100576.63;;;9.16;100.00
34237;BME280;20501;45.956;13.632;2024-03-07T02:12:14;100579.28;;;9.06;100.00
34237;BME280;20501;45.956;13.632;2024-03-07T02:14:39;100577.09;;;9.00;100.00
34237;BME280;20501;45.956;13.632;2024-03-07T02:17:05;100576.44;;;9.08;100.00
34237;BME280;20501;45.956;13.632;2024-03-07T02:19:31;100572.81;;;8.97;100.00
34237;BME280;20501;45.956;13.632;2024-03-07T02:21:57;100566.84;;;8.94;100.00
34237;BME280;20501;45.956;13.632;2024-03-07T02:24:24;100566.25;;;8.90;100.00
34237;BME280;20501;45.956;13.632;2024-03-07T02:26:49;100561.72;;;8.91;100.00
34237;BME280;20501;45.956;13.632;2024-03-07T02:29:15;100567.81;;;8.93;100.00
34237;BME280;20501;45.956;13.632;2024-03-07T02:31:41;100561.97;;;8.88;100.00
34237;BME280;20501;45.956;13.632;2024-03-07T02:34:06;100566.94;;;8.92;100.00
34237;BME280;20501;45.956;13.632;2024-03-07T02:36:33;100569.66;;;8.92;100.00
34237;BME280;20501;45.956;13.632;2024-03-07T02:38:59;100571.09;;;8.96;100.00
34237;BME280;20501;45.956;13.632;2024-03-07T02:41:25;100568.22;;;8.88;100.00
34237;BME280;20501;45.956;13.632;2024-03-07T02:43:51;100562.53;;;8.91;100.00
34237;BME280;20501;45.956;13.632;2024-03-07T02:46:17;100565.25;;;8.91;99.51
34237;BME280;20501;45.956;13.632;2024-03-07T02:48:43;100562.81;;;8.88;100.00
34237;BME280;20501;45.956;13.632;2024-03-07T02:51:09;100562.50;;;8.81;99.94
34237;BME280;20501;45.956;13.632;2024-03-07T02:53:34;100561.50;;;8.82;100.00
34237;BME280;20501;45.956;13.632;2024-03-07T02:56:00;100569.09;;;8.77;100.00
34237;BME280;20501;45.956;13.632;2024-03-07T02:58:25;100568.84;;;8.80;100.00
34237;BME280;20501;45.956;13.632;2024-03-07T03:01:00;100570.31;;;8.85;99.64
34237;BME280;20501;45.956;13.632;2024-03-07T03:03:31;100564.84;;;8.75;98.64
34237;BME280;20501;45.956;13.632;2024-03-07T03:05:58;100567.19;;;8.68;100.00
34237;BME280;20501;45.956;13.632;2024-03-07T03:08:24;100564.09;;;8.73;99.62
34237;BME280;20501;45.956;13.632;2024-03-07T03:10:50;100574.16;;;8.71;98.49
34237;BME280;20501;45.956;13.632;2024-03-07T03:13:18;100569.97;;;8.78;99.92
34237;BME280;20501;45.956;13.632;2024-03-07T03:15:43;100573.16;;;8.72;100.00
34237;BME280;20501;45.956;13.632;2024-03-07T03:18:09;100575.22;;;8.79;100.00
34237;BME280;20501;45.956;13.632;2024-03-07T03:20:35;100570.13;;;8.65;99.35
34237;BME280;20501;45.956;13.632;2024-03-07T03:23:04;100571.03;;;8.54;100.00
34237;BME280;20501;45.956;13.632;2024-03-07T03:25:30;100567.72;;;8.62;99.70
34237;BME280;20501;45.956;13.632;2024-03-07T03:28:03;100578.97;;;8.56;100.00
34237;BME280;20501;45.956;13.632;2024-03-07T03:30:29;100578.97;;;8.56;99.86
34237;BME280;20501;45.956;13.632;2024-03-07T03:32:54;100573.34;;;8.59;99.81
34237;BME280;20501;45.956;13.632;2024-03-07T03:35:20;100582.78;;;8.53;98.99
34237;BME280;20501;45.956;13.632;2024-03-07T03:37:46;100575.69;;;8.52;99.07
34237;BME280;20501;45.956;13.632;2024-03-07T03:40:12;100576.31;;;8.33;99.32
34237;BME280;20501;45.956;13.632;2024-03-07T03:42:41;100583.75;;;8.41;100.00
34237;BME280;20501;45.956;13.632;2024-03-07T03:45:08;100577.16;;;8.45;100.00
34237;BME280;20501;45.956;13.632;2024-03-07T03:47:34;100585.13;;;8.24;100.00
34237;BME280;20501;45.956;13.632;2024-03-07T03:50:02;100580.16;;;8.08;100.00
34237;BME280;20501;45.956;13.632;2024-03-07T03:52:27;100581.84;;;8.09;100.00
34237;BME280;20501;45.956;13.632;2024-03-07T03:54:54;100589.47;;;8.03;100.00
34237;BME280;20501;45.956;13.632;2024-03-07T03:57:19;100586.88;;;8.02;100.00
34237;BME280;20501;45.956;13.632;2024-03-07T03:59:45;100592.75;;;7.96;100.00
34237;BME280;20501;45.956;13.632;2024-03-07T04:02:11;100589.84;;;7.87;100.00
34237;BME280;20501;45.956;13.632;2024-03-07T04:04:40;100596.91;;;7.88;100.00
34237;BME280;20501;45.956;13.632;2024-03-07T04:07:05;100594.56;;;7.84;100.00
34237;BME280;20501;45.956;13.632;2024-03-07T04:09:31;100592.38;;;7.89;100.00
34237;BME280;20501;45.956;13.632;2024-03-07T04:11:57;100588.72;;;7.90;100.00
34237;BME280;20501;45.956;13.632;2024-03-07T04:14:23;100595.22;;;7.87;100.00
34237;BME280;20501;45.956;13.632;2024-03-07T04:16:48;100595.22;;;7.87;100.00
34237;BME280;20501;45.956;13.632;2024-03-07T04:19:14;100589.19;;;7.95;100.00
34237;BME280;20501;45.956;13.632;2024-03-07T04:21:39;100587.59;;;8.15;100.00
34237;BME280;20501;45.956;13.632;2024-03-07T04:24:05;100592.16;;;8.03;100.00
34237;BME280;20501;45.956;13.632;2024-03-07T04:26:30;100592.75;;;8.07;100.00
34237;BME280;20501;45.956;13.632;2024-03-07T04:28:56;100597.38;;;8.16;99.64
34237;BME280;20501;45.956;13.632;2024-03-07T04:31:23;100586.03;;;7.90;100.00
34237;BME280;20501;45.956;13.632;2024-03-07T04:33:48;100587.47;;;7.94;99.76
34237;BME280;20501;45.956;13.632;2024-03-07T04:36:15;100594.09;;;8.01;98.48
34237;BME280;20501;45.956;13.632;2024-03-07T04:38:40;100592.84;;;7.94;99.82
34237;BME280;20501;45.956;13.632;2024-03-07T04:41:11;100590.28;;;8.15;99.42
34237;BME280;20501;45.956;13.632;2024-03-07T04:43:36;100590.66;;;7.88;100.00
34237;BME280;20501;45.956;13.632;2024-03-07T04:46:02;100602.03;;;7.80;100.00
34237;BME280;20501;45.956;13.632;2024-03-07T04:48:28;100597.03;;;7.98;100.00
34237;BME280;20501;45.956;13.632;2024-03-07T04:50:53;100602.03;;;7.92;100.00
34237;BME280;20501;45.956;13.632;2024-03-07T04:53:18;100604.34;;;7.73;100.00
34237;BME280;20501;45.956;13.632;2024-03-07T04:55:44;100600.06;;;7.71;100.00
34237;BME280;20501;45.956;13.632;2024-03-07T04:58:09;100598.28;;;7.83;100.00
34237;BME280;20501;45.956;13.632;2024-03-07T05:00:35;100608.75;;;7.86;99.88
34237;BME280;20501;45.956;13.632;2024-03-07T05:03:00;100612.19;;;7.88;99.67
34237;BME280;20501;45.956;13.632;2024-03-07T05:05:25;100607.31;;;7.82;99.72
34237;BME280;20501;45.956;13.632;2024-03-07T05:07:52;100606.44;;;7.93;99.21
34237;BME280;20501;45.956;13.632;2024-03-07T05:10:18;100607.56;;;7.90;99.91
34237;BME280;20501;45.956;13.632;2024-03-07T05:12:43;100609.50;;;7.99;98.67
34237;BME280;20501;45.956;13.632;2024-03-07T05:15:09;100619.06;;;8.03;98.69
34237;BME280;20501;45.956;13.632;2024-03-07T05:17:37;100617.06;;;7.94;99.07
34237;BME280;20501;45.956;13.632;2024-03-07T05:20:06;100614.28;;;7.96;98.39
34237;BME280;20501;45.956;13.632;2024-03-07T05:22:36;100614.16;;;7.97;98.55
34237;BME280;20501;45.956;13.632;2024-03-07T05:25:06;100602.53;;;8.08;97.92
34237;BME280;20501;45.956;13.632;2024-03-07T05:27:32;100611.81;;;8.27;97.09
34237;BME280;20501;45.956;13.632;2024-03-07T05:29:59;100621.09;;;8.00;98.80
34237;BME280;20501;45.956;13.632;2024-03-07T05:32:25;100623.31;;;7.83;97.91
34237;BME280;20501;45.956;13.632;2024-03-07T05:34:52;100624.06;;;7.85;98.99
34237;BME280;20501;45.956;13.632;2024-03-07T05:37:20;100625.50;;;7.78;99.59
34237;BME280;20501;45.956;13.632;2024-03-07T05:39:51;100622.69;;;7.68;98.53
34237;BME280;20501;45.956;13.632;2024-03-07T05:42:17;100619.91;;;7.93;97.27
34237;BME280;20501;45.956;13.632;2024-03-07T05:44:43;100632.22;;;7.84;96.34
34237;BME280;20501;45.956;13.632;2024-03-07T05:47:09;100632.38;;;7.82;95.96
34237;BME280;20501;45.956;13.632;2024-03-07T05:49:35;100634.81;;;8.08;95.28
34237;BME280;20501;45.956;13.632;2024-03-07T05:52:02;100642.41;;;8.14;95.39
34237;BME280;20501;45.956;13.632;2024-03-07T05:54:28;100642.25;;;8.04;95.68
34237;BME280;20501;45.956;13.632;2024-03-07T05:56:54;100647.03;;;8.01;96.15
34237;BME280;20501;45.956;13.632;2024-03-07T05:59:20;100648.38;;;7.95;96.24
34237;BME280;20501;45.956;13.632;2024-03-07T06:01:46;100655.22;;;7.88;95.07
34237;BME280;20501;45.956;13.632;2024-03-07T06:04:12;100645.06;;;7.92;94.35
34237;BME280;20501;45.956;13.632;2024-03-07T06:06:38;100651.41;;;7.79;93.65
34237;BME280;20501;45.956;13.632;2024-03-07T06:09:07;100652.56;;;7.99;94.81
34237;BME280;20501;45.956;13.632;2024-03-07T06:11:37;100658.44;;;7.93;95.81
34237;BME280;20501;45.956;13.632;2024-03-07T06:14:04;100657.41;;;7.94;96.72
34237;BME280;20501;45.956;13.632;2024-03-07T06:16:31;100664.03;;;7.90;96.61
34237;BME280;20501;45.956;13.632;2024-03-07T06:19:05;100666.38;;;7.95;97.20
34237;BME280;20501;45.956;13.632;2024-03-07T06:21:36;100672.50;;;8.08;95.96
34237;BME280;20501;45.956;13.632;2024-03-07T06:24:02;100669.69;;;8.10;95.33
34237;BME280;20501;45.956;13.632;2024-03-07T06:26:28;100672.72;;;8.05;95.16
34237;BME280;20501;45.956;13.632;2024-03-07T06:29:06;100672.22;;;8.00;93.57
34237;BME280;20501;45.956;13.632;2024-03-07T06:31:33;100669.91;;;8.06;92.92
34237;BME280;20501;45.956;13.632;2024-03-07T06:33:58;100673.34;;;8.09;92.91
34237;BME280;20501;45.956;13.632;2024-03-07T06:36:24;100663.19;;;8.24;91.91
34237;BME280;20501;45.956;13.632;2024-03-07T06:38:50;100674.91;;;8.11;91.98
34237;BME280;20501;45.956;13.632;2024-03-07T06:41:16;100668.09;;;8.18;93.68
34237;BME280;20501;45.956;13.632;2024-03-07T06:43:43;100681.56;;;8.18;94.14
34237;BME280;20501;45.956;13.632;2024-03-07T06:46:10;100665.88;;;8.24;96.08
34237;BME280;20501;45.956;13.632;2024-03-07T06:48:35;100672.59;;;8.41;94.43
34237;BME280;20501;45.956;13.632;2024-03-07T06:51:01;100675.06;;;8.32;93.49
34237;BME280;20501;45.956;13.632;2024-03-07T06:53:26;100676.63;;;8.24;92.65
34237;BME280;20501;45.956;13.632;2024-03-07T06:55:53;100679.84;;;8.29;93.32
34237;BME280;20501;45.956;13.632;2024-03-07T06:58:21;100681.91;;;8.48;92.59
34237;BME280;20501;45.956;13.632;2024-03-07T07:00:48;100684.59;;;8.48;90.87
34237;BME280;20501;45.956;13.632;2024-03-07T07:03:17;100683.53;;;8.50;91.64
34237;BME280;20501;45.956;13.632;2024-03-07T07:05:42;100689.88;;;8.49;91.51
34237;BME280;20501;45.956;13.632;2024-03-07T07:08:07;100683.16;;;8.55;91.65
34237;BME280;20501;45.956;13.632;2024-03-07T07:10:34;100681.44;;;8.54;91.65
34237;BME280;20501;45.956;13.632;2024-03-07T07:13:00;100687.78;;;8.64;91.75
34237;BME280;20501;45.956;13.632;2024-03-07T07:15:26;100684.84;;;8.67;90.68
34237;BME280;20501;45.956;13.632;2024-03-07T07:17:51;100685.69;;;8.68;91.19
34237;BME280;20501;45.956;13.632;2024-03-07T07:20:18;100680.31;;;8.68;91.96
34237;BME280;20501;45.956;13.632;2024-03-07T07:22:47;100685.03;;;8.87;92.09
34237;BME280;20501;45.956;13.632;2024-03-07T07:25:14;100687.00;;;8.85;90.56
34237;BME280;20501;45.956;13.632;2024-03-07T07:27:41;100684.88;;;9.00;90.07
34237;BME280;20501;45.956;13.632;2024-03-07T07:30:11;100686.19;;;9.06;90.34
34237;BME280;20501;45.956;13.632;2024-03-07T07:32:36;100680.81;;;9.06;89.75
34237;BME280;20501;45.956;13.632;2024-03-07T07:35:02;100684.06;;;9.21;89.89
34237;BME280;20501;45.956;13.632;2024-03-07T07:37:28;100679.41;;;9.23;88.69
34237;BME280;20501;45.956;13.632;2024-03-07T07:39:53;100687.78;;;9.41;87.56
34237;BME280;20501;45.956;13.632;2024-03-07T07:42:19;100681.53;;;9.40;87.15
34237;BME280;20501;45.956;13.632;2024-03-07T07:44:45;100686.28;;;9.48;87.09
34237;BME280;20501;45.956;13.632;2024-03-07T07:47:10;100692.25;;;9.52;86.94
34237;BME280;20501;45.956;13.632;2024-03-07T07:49:39;100689.22;;;9.45;86.64
34237;BME280;20501;45.956;13.632;2024-03-07T07:52:05;100693.72;;;9.56;85.96
34237;BME280;20501;45.956;13.632;2024-03-07T07:54:32;100694.44;;;9.58;86.78
34237;BME280;20501;45.956;13.632;2024-03-07T07:56:58;100695.38;;;9.68;85.67
34237;BME280;20501;45.956;13.632;2024-03-07T07:59:23;100696.03;;;9.82;86.69
34237;BME280;20501;45.956;13.632;2024-03-07T08:01:49;100699.75;;;9.90;83.45
34237;BME280;20501;45.956;13.632;2024-03-07T08:04:15;100702.13;;;10.05;86.44
34237;BME280;20501;45.956;13.632;2024-03-07T08:06:40;100694.66;;;10.18;85.05
34237;BME280;20501;45.956;13.632;2024-03-07T08:09:06;100694.84;;;10.27;82.94
34237;BME280;20501;45.956;13.632;2024-03-07T08:11:35;100702.94;;;10.58;82.12
34237;BME280;20501;45.956;13.632;2024-03-07T08:14:02;100703.88;;;10.78;79.97
34237;BME280;20501;45.956;13.632;2024-03-07T08:16:27;100700.47;;;10.95;79.37
34237;BME280;20501;45.956;13.632;2024-03-07T08:18:52;100694.66;;;11.20;79.56
34237;BME280;20501;45.956;13.632;2024-03-07T08:21:18;100698.50;;;11.37;79.42
34237;BME280;20501;45.956;13.632;2024-03-07T08:23:43;100700.25;;;11.28;77.23
34237;BME280;20501;45.956;13.632;2024-03-07T08:26:09;100692.53;;;11.33;77.15
34237;BME280;20501;45.956;13.632;2024-03-07T08:28:34;100698.94;;;11.42;76.68
34237;BME280;20501;45.956;13.632;2024-03-07T08:31:00;100704.47;;;11.40;76.62
34237;BME280;20501;45.956;13.632;2024-03-07T08:33:25;100697.09;;;11.42;75.78
34237;BME280;20501;45.956;13.632;2024-03-07T08:35:51;100694.50;;;11.51;74.77
34237;BME280;20501;45.956;13.632;2024-03-07T08:38:18;100691.69;;;11.52;74.50
34237;BME280;20501;45.956;13.632;2024-03-07T08:40:43;100700.91;;;11.59;75.27
34237;BME280;20501;45.956;13.632;2024-03-07T08:43:09;100704.22;;;11.53;74.24
34237;BME280;20501;45.956;13.632;2024-03-07T08:45:35;100698.66;;;11.55;73.69
34237;BME280;20501;45.956;13.632;2024-03-07T08:48:01;100698.09;;;11.51;75.25
34237;BME280;20501;45.956;13.632;2024-03-07T08:50:29;100702.19;;;11.75;78.06
34237;BME280;20501;45.956;13.632;2024-03-07T08:52:55;100700.44;;;11.93;72.03
34237;BME280;20501;45.956;13.632;2024-03-07T08:55:24;100696.59;;;12.06;67.14
34237;BME280;20501;45.956;13.632;2024-03-07T08:57:53;100690.59;;;12.12;65.97
34237;BME280;20501;45.956;13.632;2024-03-07T09:00:19;100699.69;;;12.11;64.29
34237;BME280;20501;45.956;13.632;2024-03-07T09:02:48;100695.09;;;12.21;63.82
34237;BME280;20501;45.956;13.632;2024-03-07T09:05:21;100696.78;;;12.32;64.36
34237;BME280;20501;45.956;13.632;2024-03-07T09:07:48;100692.09;;;12.25;63.28
34237;BME280;20501;45.956;13.632;2024-03-07T09:10:13;100697.50;;;12.34;65.55
34237;BME280;20501;45.956;13.632;2024-03-07T09:12:42;100694.34;;;12.39;65.09
34237;BME280;20501;45.956;13.632;2024-03-07T09:15:09;100684.84;;;12.25;62.04
34237;BME280;20501;45.956;13.632;2024-03-07T09:17:38;100688.88;;;12.11;59.01
34237;BME280;20501;45.956;13.632;2024-03-07T09:20:05;100694.53;;;12.28;59.75
34237;BME280;20501;45.956;13.632;2024-03-07T09:22:31;100697.19;;;12.37;58.63
34237;BME280;20501;45.956;13.632;2024-03-07T09:24:59;100686.16;;;12.49;59.95
34237;BME280;20501;45.956;13.632;2024-03-07T09:27:24;100688.22;;;12.65;58.35
34237;BME280;20501;45.956;13.632;2024-03-07T09:29:50;100672.84;;;12.56;58.28
34237;BME280;20501;45.956;13.632;2024-03-07T09:32:16;100682.53;;;12.86;59.26
34237;BME280;20501;45.956;13.632;2024-03-07T09:34:42;100690.16;;;12.73;54.70
34237;BME280;20501;45.956;13.632;2024-03-07T09:37:07;100688.91;;;12.95;60.16
34237;BME280;20501;45.956;13.632;2024-03-07T09:39:33;100683.25;;;13.06;55.64
34237;BME280;20501;45.956;13.632;2024-03-07T09:42:01;100674.03;;;13.35;53.64
34237;BME280;20501;45.956;13.632;2024-03-07T09:44:28;100679.69;;;13.24;52.56
34237;BME280;20501;45.956;13.632;2024-03-07T09:46:55;100673.72;;;13.38;53.24
34237;BME280;20501;45.956;13.632;2024-03-07T09:49:21;100671.72;;;13.40;52.64
34237;BME280;20501;45.956;13.632;2024-03-07T09:51:49;100678.22;;;13.29;53.16
34237;BME280;20501;45.956;13.632;2024-03-07T09:54:20;100678.63;;;13.16;52.39
34237;BME280;20501;45.956;13.632;2024-03-07T09:56:45;100680.75;;;13.31;52.49
34237;BME280;20501;45.956;13.632;2024-03-07T09:59:12;100670.38;;;13.26;53.40
34237;BME280;20501;45.956;13.632;2024-03-07T10:01:41;100675.06;;;13.52;52.97
34237;BME280;20501;45.956;13.632;2024-03-07T10:04:12;100679.72;;;13.42;50.55
34237;BME280;20501;45.956;13.632;2024-03-07T10:06:40;100681.44;;;13.43;51.59
34237;BME280;20501;45.956;13.632;2024-03-07T10:09:07;100675.75;;;13.54;54.24
34237;BME280;20501;45.956;13.632;2024-03-07T10:11:33;100674.69;;;13.73;52.81
34237;BME280;20501;45.956;13.632;2024-03-07T10:13:59;100677.28;;;13.57;51.22
34237;BME280;20501;45.956;13.632;2024-03-07T10:16:24;100676.31;;;13.40;51.54
34237;BME280;20501;45.956;13.632;2024-03-07T10:18:50;100676.13;;;13.41;53.20
34237;BME280;20501;45.956;13.632;2024-03-07T10:21:22;100673.13;;;13.44;52.98
34237;BME280;20501;45.956;13.632;2024-03-07T10:23:49;100673.53;;;13.50;56.09
34237;BME280;20501;45.956;13.632;2024-03-07T10:26:16;100672.28;;;13.44;53.38
34237;BME280;20501;45.956;13.632;2024-03-07T10:28:43;100672.72;;;13.39;56.24
34237;BME280;20501;45.956;13.632;2024-03-07T10:31:08;100667.44;;;13.20;52.98
34237;BME280;20501;45.956;13.632;2024-03-07T10:33:37;100672.03;;;13.37;54.60
34237;BME280;20501;45.956;13.632;2024-03-07T10:36:03;100676.56;;;13.37;53.31
34237;BME280;20501;45.956;13.632;2024-03-07T10:38:28;100676.88;;;13.34;52.70
34237;BME280;20501;45.956;13.632;2024-03-07T10:40:54;100682.09;;;13.27;52.19
34237;BME280;20501;45.956;13.632;2024-03-07T10:43:21;100667.78;;;13.16;52.21
34237;BME280;20501;45.956;13.632;2024-03-07T10:45:48;100676.44;;;13.20;52.80
34237;BME280;20501;45.956;13.632;2024-03-07T10:48:17;100670.31;;;13.18;53.24
34237;BME280;20501;45.956;13.632;2024-03-07T11:01:23;100660.38;;;13.63;51.70
34237;BME280;20501;45.956;13.632;2024-03-07T11:03:51;100665.50;;;13.66;51.43
34237;BME280;20501;45.956;13.632;2024-03-07T11:06:18;100659.53;;;13.62;52.63
34237;BME280;20501;45.956;13.632;2024-03-07T11:08:44;100662.69;;;13.76;53.80
34237;BME280;20501;45.956;13.632;2024-03-07T11:11:11;100661.94;;;13.92;53.95
34237;BME280;20501;45.956;13.632;2024-03-07T11:13:38;100657.75;;;13.98;54.78
34237;BME280;20501;45.956;13.632;2024-03-07T11:16:04;100655.81;;;13.90;53.24
34237;BME280;20501;45.956;13.632;2024-03-07T11:18:31;100655.84;;;13.72;50.85
34237;BME280;20501;45.956;13.632;2024-03-07T11:20:56;100655.38;;;13.76;52.40
34237;BME280;20501;45.956;13.632;2024-03-07T11:23:32;100642.81;;;13.75;51.51
34237;BME280;20501;45.956;13.632;2024-03-07T11:26:10;100642.75;;;13.67;51.22
34237;BME280;20501;45.956;13.632;2024-03-07T11:28:37;100642.50;;;13.78;51.41
34237;BME280;20501;45.956;13.632;2024-03-07T11:31:12;100635.31;;;13.69;52.09
34237;BME280;20501;45.956;13.632;2024-03-07T11:33:39;100632.81;;;13.50;50.69
34237;BME280;20501;45.956;13.632;2024-03-07T11:36:09;100624.28;;;13.44;51.64
34237;BME280;20501;45.956;13.632;2024-03-07T11:38:58;100628.72;;;13.72;54.73
34237;BME280;20501;45.956;13.632;2024-03-07T11:41:23;100627.88;;;13.71;53.51
34237;BME280;20501;45.956;13.632;2024-03-07T11:43:48;100621.00;;;13.59;54.76
34237;BME280;20501;45.956;13.632;2024-03-07T11:46:14;100618.31;;;13.41;55.41
34237;BME280;20501;45.956;13.632;2024-03-07T11:48:42;100613.94;;;13.30;54.68
34237;BME280;20501;45.956;13.632;2024-03-07T11:51:11;100612.09;;;13.30;56.09
34237;BME280;20501;45.956;13.632;2024-03-07T11:53:40;100618.38;;;13.13;57.31
34237;BME280;20501;45.956;13.632;2024-03-07T11:56:06;100621.25;;;13.11;59.26
34237;BME280;20501;45.956;13.632;2024-03-07T11:58:37;100616.84;;;13.10;57.36
34237;BME280;20501;45.956;13.632;2024-03-07T12:01:05;100611.03;;;12.87;57.79
34237;BME280;20501;45.956;13.632;2024-03-07T12:03:36;100611.50;;;12.82;61.46
34237;BME280;20501;45.956;13.632;2024-03-07T12:06:02;100618.63;;;12.65;68.01
34237;BME280;20501;45.956;13.632;2024-03-07T12:08:28;100615.16;;;12.45;69.74
34237;BME280;20501;45.956;13.632;2024-03-07T12:10:55;100615.22;;;12.07;71.95
34237;BME280;20501;45.956;13.632;2024-03-07T12:13:22;100624.34;;;11.97;77.27
34237;BME280;20501;45.956;13.632;2024-03-07T12:15:50;100624.72;;;11.74;73.85
34237;BME280;20501;45.956;13.632;2024-03-07T12:18:17;100626.91;;;11.41;78.21
34237;BME280;20501;45.956;13.632;2024-03-07T12:20:44;100635.34;;;11.28;83.35
34237;BME280;20501;45.956;13.632;2024-03-07T12:23:16;100644.41;;;10.88;81.73
34237;BME280;20501;45.956;13.632;2024-03-07T12:25:44;100650.81;;;10.36;74.39
34237;BME280;20501;45.956;13.632;2024-03-07T12:28:14;100636.00;;;10.30;79.36
34237;BME280;20501;45.956;13.632;2024-03-07T12:33:11;100656.56;;;9.90;90.99
34237;BME280;20501;45.956;13.632;2024-03-07T12:35:39;100659.03;;;9.72;93.70
34237;BME280;20501;45.956;13.632;2024-03-07T12:38:08;100654.56;;;9.62;92.00
34237;BME280;20501;45.956;13.632;2024-03-07T12:40:36;100662.66;;;9.40;89.85
34237;BME280;20501;45.956;13.632;2024-03-07T12:43:12;100645.78;;;9.06;94.56
34237;BME280;20501;45.956;13.632;2024-03-07T12:45:47;100651.47;;;8.91;98.51
34237;BME280;20501;45.956;13.632;2024-03-07T12:48:13;100649.69;;;9.02;100.00
34237;BME280;20501;45.956;13.632;2024-03-07T12:50:40;100644.34;;;9.23;100.00
34237;BME280;20501;45.956;13.632;2024-03-07T12:53:06;100644.56;;;9.31;100.00